Página principal
METAR-TAF:

METAR-TAF

Aeroportos :

Caracas, Venezuela

Aeroporto Internacional Simón Bolívar

latitude: 10-36N, longitude: 066-59W, altura: 43 m

Observação actual do tempo

O boletim foi feito há 43 minutos, às 23:00 UTC
Vento 6 kt de es-nordeste
Temperatura 29°C
Humidade 79%
Pressão 1009 hPa
Visibilidade 10 km ou mais
Nuvens dispersasa uma altura de 1300 ft

METAR: SVMI 192300Z 07006KT 9999 SCT013 29/25 Q1009

Hora: 19:43 (23:43 UTC)

Previsão

O boletim foi feito há 7 horas e 43 minutos, às 16:00 UTC
Previsão válida de 19 às 18 UTC a 20 às 18 UTC
Vento 15 kt de nor-nordeste
Visibilidade 10 km ou mais
Poucas nuvensa uma altura de 1600 ft
Tornando-se
de 19 às 18 UTC a 19 às 22 UTC
Vento 11 kt de oeste
Nuvens dispersasa uma altura de 1300 ft

TAF: SVMI 191600Z 1918/2018 03015KT 9999 FEW016 TX32/18Z TN24/10Z BECMG 1918/1922 27011KT SCT013

Observações e previsões do tempo de mais de 4000 aeroportos (mensagens METAR e TAF).

As estações disponíveis são os pontos amarelos e vermelhos sobre o mapa.

Mova o rato sobre o mapa para ver o nome da estação.

Depois clique no ponto para visualizar as observações e previsões meteorológicas.

Para alterar o mapa : clique nos botões verdes com uma cruz preta para aumentar o zoom; no botão verde com uma pitada de zoom; ou nas setas verdes para mapas adjacentes.


METAR-TAF: